sensor_id;sensor_type;location;lat;lon;timestamp;temperature;humidity
69823;SHT31;57119;52.516;13.508;2024-01-30T00:00:54;0.11;99.99
69823;SHT31;57119;52.516;13.508;2024-01-30T00:03:19;0.16;99.99
69823;SHT31;57119;52.516;13.508;2024-01-30T00:05:45;0.14;99.99
69823;SHT31;57119;52.516;13.508;2024-01-30T00:08:10;0.11;99.99
69823;SHT31;57119;52.516;13.508;2024-01-30T00:10:35;0.11;99.99
69823;SHT31;57119;52.516;13.508;2024-01-30T00:13:01;0.05;99.99
69823;SHT31;57119;52.516;13.508;2024-01-30T00:15:27;0.40;99.99
69823;SHT31;57119;52.516;13.508;2024-01-30T00:17:53;0.33;99.96
69823;SHT31;57119;52.516;13.508;2024-01-30T00:20:18;0.21;99.99
69823;SHT31;57119;52.516;13.508;2024-01-30T00:22:44;0.20;99.99
69823;SHT31;57119;52.516;13.508;2024-01-30T00:25:09;0.18;99.99
69823;SHT31;57119;52.516;13.508;2024-01-30T00:27:34;0.05;99.99
69823;SHT31;57119;52.516;13.508;2024-01-30T00:30:00;0.02;99.99
69823;SHT31;57119;52.516;13.508;2024-01-30T00:32:25;0.05;99.99
69823;SHT31;57119;52.516;13.508;2024-01-30T00:34:50;0.03;99.99
69823;SHT31;57119;52.516;13.508;2024-01-30T00:37:16;-0.07;99.99
69823;SHT31;57119;52.516;13.508;2024-01-30T00:39:41;-0.05;99.99
69823;SHT31;57119;52.516;13.508;2024-01-30T00:42:07;-0.11;99.99
69823;SHT31;57119;52.516;13.508;2024-01-30T00:44:35;-0.18;99.99
69823;SHT31;57119;52.516;13.508;2024-01-30T00:47:02;-0.11;99.99
69823;SHT31;57119;52.516;13.508;2024-01-30T00:49:28;-0.14;99.99
69823;SHT31;57119;52.516;13.508;2024-01-30T00:51:53;-0.17;99.99
69823;SHT31;57119;52.516;13.508;2024-01-30T00:54:19;-0.22;99.99
69823;SHT31;57119;52.516;13.508;2024-01-30T00:56:44;-0.22;99.99
69823;SHT31;57119;52.516;13.508;2024-01-30T00:59:10;-0.35;99.99
69823;SHT31;57119;52.516;13.508;2024-01-30T01:01:36;-0.32;99.99
69823;SHT31;57119;52.516;13.508;2024-01-30T01:04:01;-0.39;99.99
69823;SHT31;57119;52.516;13.508;2024-01-30T01:06:27;-0.41;99.99
69823;SHT31;57119;52.516;13.508;2024-01-30T01:08:52;-0.36;99.99
69823;SHT31;57119;52.516;13.508;2024-01-30T01:11:18;-0.35;99.99
69823;SHT31;57119;52.516;13.508;2024-01-30T01:13:43;-0.43;99.99
69823;SHT31;57119;52.516;13.508;2024-01-30T01:16:08;-0.49;99.99
69823;SHT31;57119;52.516;13.508;2024-01-30T01:18:34;-0.51;99.99
69823;SHT31;57119;52.516;13.508;2024-01-30T01:20:59;-0.49;99.99
69823;SHT31;57119;52.516;13.508;2024-01-30T01:23:25;-0.52;99.99
69823;SHT31;57119;52.516;13.508;2024-01-30T01:25:50;-0.52;99.99
69823;SHT31;57119;52.516;13.508;2024-01-30T01:28:16;-0.62;99.99
69823;SHT31;57119;52.516;13.508;2024-01-30T01:30:41;-0.65;99.99
69823;SHT31;57119;52.516;13.508;2024-01-30T01:33:06;-0.69;99.99
69823;SHT31;57119;52.516;13.508;2024-01-30T01:35:32;-0.70;99.99
69823;SHT31;57119;52.516;13.508;2024-01-30T01:37:57;-0.68;99.99
69823;SHT31;57119;52.516;13.508;2024-01-30T01:40:25;-0.63;99.99
69823;SHT31;57119;52.516;13.508;2024-01-30T01:42:53;-0.69;99.99
69823;SHT31;57119;52.516;13.508;2024-01-30T01:45:19;-0.58;99.99
69823;SHT31;57119;52.516;13.508;2024-01-30T01:47:47;-0.56;99.99
69823;SHT31;57119;52.516;13.508;2024-01-30T01:50:13;-0.49;99.99
69823;SHT31;57119;52.516;13.508;2024-01-30T01:52:43;-0.35;99.99
69823;SHT31;57119;52.516;13.508;2024-01-30T01:55:10;-0.35;99.99
69823;SHT31;57119;52.516;13.508;2024-01-30T01:57:36;-0.42;99.99
69823;SHT31;57119;52.516;13.508;2024-01-30T02:00:01;-0.51;99.99
69823;SHT31;57119;52.516;13.508;2024-01-30T02:02:30;-0.52;99.99
69823;SHT31;57119;52.516;13.508;2024-01-30T02:04:57;-0.62;99.99
69823;SHT31;57119;52.516;13.508;2024-01-30T02:07:22;-0.61;99.99
69823;SHT31;57119;52.516;13.508;2024-01-30T02:09:47;-0.63;99.99
69823;SHT31;57119;52.516;13.508;2024-01-30T02:12:13;-0.63;99.99
69823;SHT31;57119;52.516;13.508;2024-01-30T02:14:48;-0.70;99.99
69823;SHT31;57119;52.516;13.508;2024-01-30T02:17:15;-0.74;99.99
69823;SHT31;57119;52.516;13.508;2024-01-30T02:19:41;-0.68;99.99
69823;SHT31;57119;52.516;13.508;2024-01-30T02:22:07;-0.69;99.99
69823;SHT31;57119;52.516;13.508;2024-01-30T02:24:33;-0.69;99.99
69823;SHT31;57119;52.516;13.508;2024-01-30T02:26:58;-0.79;99.99
69823;SHT31;57119;52.516;13.508;2024-01-30T02:29:23;-0.72;99.99
69823;SHT31;57119;52.516;13.508;2024-01-30T02:31:49;-0.69;99.99
69823;SHT31;57119;52.516;13.508;2024-01-30T02:34:14;-0.68;99.99
69823;SHT31;57119;52.516;13.508;2024-01-30T02:36:43;-0.66;99.99
69823;SHT31;57119;52.516;13.508;2024-01-30T02:39:08;-0.63;99.99
69823;SHT31;57119;52.516;13.508;2024-01-30T02:41:34;-0.53;99.99
69823;SHT31;57119;52.516;13.508;2024-01-30T02:44:00;-0.53;99.99
69823;SHT31;57119;52.516;13.508;2024-01-30T02:46:25;-0.51;99.99
69823;SHT31;57119;52.516;13.508;2024-01-30T02:48:51;-0.61;99.99
69823;SHT31;57119;52.516;13.508;2024-01-30T02:51:16;-0.56;99.99
69823;SHT31;57119;52.516;13.508;2024-01-30T02:53:42;-0.55;99.99
69823;SHT31;57119;52.516;13.508;2024-01-30T02:56:07;-0.55;99.99
69823;SHT31;57119;52.516;13.508;2024-01-30T02:58:35;-0.51;99.99
69823;SHT31;57119;52.516;13.508;2024-01-30T03:01:01;-0.51;99.99
69823;SHT31;57119;52.516;13.508;2024-01-30T03:03:26;-0.58;99.99
69823;SHT31;57119;52.516;13.508;2024-01-30T03:05:51;-0.53;99.99
69823;SHT31;57119;52.516;13.508;2024-01-30T03:08:17;-0.49;99.99
69823;SHT31;57119;52.516;13.508;2024-01-30T03:10:42;-0.45;99.99
69823;SHT31;57119;52.516;13.508;2024-01-30T03:13:07;-0.45;99.99
69823;SHT31;57119;52.516;13.508;2024-01-30T03:15:33;-0.45;99.99
69823;SHT31;57119;52.516;13.508;2024-01-30T03:17:58;-0.49;99.99
69823;SHT31;57119;52.516;13.508;2024-01-30T03:20:24;-0.49;99.99
69823;SHT31;57119;52.516;13.508;2024-01-30T03:22:49;-0.49;99.99
69823;SHT31;57119;52.516;13.508;2024-01-30T03:25:14;-0.55;99.99
69823;SHT31;57119;52.516;13.508;2024-01-30T03:27:40;-0.56;99.99
69823;SHT31;57119;52.516;13.508;2024-01-30T03:30:06;-0.61;99.99
69823;SHT31;57119;52.516;13.508;2024-01-30T03:32:31;-0.66;99.99
69823;SHT31;57119;52.516;13.508;2024-01-30T03:34:56;-0.70;99.99
69823;SHT31;57119;52.516;13.508;2024-01-30T03:37:23;-0.65;99.99
69823;SHT31;57119;52.516;13.508;2024-01-30T03:39:48;-0.68;99.99
69823;SHT31;57119;52.516;13.508;2024-01-30T03:42:14;-0.65;99.99
69823;SHT31;57119;52.516;13.508;2024-01-30T03:44:39;-0.66;99.99
69823;SHT31;57119;52.516;13.508;2024-01-30T03:47:04;-0.65;99.99
69823;SHT31;57119;52.516;13.508;2024-01-30T03:49:30;-0.62;99.99
69823;SHT31;57119;52.516;13.508;2024-01-30T03:51:55;-0.72;99.99
69823;SHT31;57119;52.516;13.508;2024-01-30T03:54:21;-0.77;99.99
69823;SHT31;57119;52.516;13.508;2024-01-30T03:56:46;-0.74;99.99
69823;SHT31;57119;52.516;13.508;2024-01-30T03:59:12;-0.73;99.99
69823;SHT31;57119;52.516;13.508;2024-01-30T04:01:37;-0.77;99.99
69823;SHT31;57119;52.516;13.508;2024-01-30T04:04:02;-0.72;99.99
69823;SHT31;57119;52.516;13.508;2024-01-30T04:06:28;-0.80;99.99
69823;SHT31;57119;52.516;13.508;2024-01-30T04:08:53;-0.84;99.99
69823;SHT31;57119;52.516;13.508;2024-01-30T04:11:19;-0.83;99.99
69823;SHT31;57119;52.516;13.508;2024-01-30T04:13:45;-0.86;99.99
69823;SHT31;57119;52.516;13.508;2024-01-30T04:16:22;-0.89;99.99
69823;SHT31;57119;52.516;13.508;2024-01-30T04:18:48;-0.84;99.99
69823;SHT31;57119;52.516;13.508;2024-01-30T04:21:13;-0.70;99.99
69823;SHT31;57119;52.516;13.508;2024-01-30T04:23:40;-0.68;99.99
69823;SHT31;57119;52.516;13.508;2024-01-30T04:26:05;-0.76;99.99
69823;SHT31;57119;52.516;13.508;2024-01-30T04:28:31;-0.79;99.99
69823;SHT31;57119;52.516;13.508;2024-01-30T04:30:56;-0.80;99.99
69823;SHT31;57119;52.516;13.508;2024-01-30T04:33:21;-0.82;99.99
69823;SHT31;57119;52.516;13.508;2024-01-30T04:35:47;-0.77;99.99
69823;SHT31;57119;52.516;13.508;2024-01-30T04:38:12;-0.74;99.99
69823;SHT31;57119;52.516;13.508;2024-01-30T04:40:38;-0.77;99.99
69823;SHT31;57119;52.516;13.508;2024-01-30T04:43:04;-0.77;99.99
69823;SHT31;57119;52.516;13.508;2024-01-30T04:45:29;-0.79;99.99
69823;SHT31;57119;52.516;13.508;2024-01-30T04:47:54;-0.80;99.99
69823;SHT31;57119;52.516;13.508;2024-01-30T04:50:20;-0.79;99.99
69823;SHT31;57119;52.516;13.508;2024-01-30T04:52:45;-0.76;99.99
69823;SHT31;57119;52.516;13.508;2024-01-30T04:55:10;-0.68;99.99
69823;SHT31;57119;52.516;13.508;2024-01-30T04:57:36;-0.68;99.99
69823;SHT31;57119;52.516;13.508;2024-01-30T05:00:02;-0.63;99.99
69823;SHT31;57119;52.516;13.508;2024-01-30T05:02:28;-0.63;99.99
69823;SHT31;57119;52.516;13.508;2024-01-30T05:04:53;-0.51;99.99
69823;SHT31;57119;52.516;13.508;2024-01-30T05:07:19;-0.42;99.99
69823;SHT31;57119;52.516;13.508;2024-01-30T05:09:44;-0.49;99.99
69823;SHT31;57119;52.516;13.508;2024-01-30T05:12:09;-0.42;99.99
69823;SHT31;57119;52.516;13.508;2024-01-30T05:14:35;-0.29;99.99
69823;SHT31;57119;52.516;13.508;2024-01-30T05:17:00;-0.32;99.99
69823;SHT31;57119;52.516;13.508;2024-01-30T05:19:25;-0.17;99.99
69823;SHT31;57119;52.516;13.508;2024-01-30T05:21:51;0.02;99.99
69823;SHT31;57119;52.516;13.508;2024-01-30T05:24:16;-0.08;99.99
69823;SHT31;57119;52.516;13.508;2024-01-30T05:26:42;-0.04;99.99
69823;SHT31;57119;52.516;13.508;2024-01-30T05:29:07;0.03;99.99
69823;SHT31;57119;52.516;13.508;2024-01-30T05:31:35;-0.14;99.99
69823;SHT31;57119;52.516;13.508;2024-01-30T05:34:01;-0.24;99.99
69823;SHT31;57119;52.516;13.508;2024-01-30T05:36:27;-0.22;99.99
69823;SHT31;57119;52.516;13.508;2024-01-30T05:38:52;-0.32;99.99
69823;SHT31;57119;52.516;13.508;2024-01-30T05:41:18;-0.18;99.99
69823;SHT31;57119;52.516;13.508;2024-01-30T05:43:43;-0.03;99.99
69823;SHT31;57119;52.516;13.508;2024-01-30T05:46:09;0.03;99.99
69823;SHT31;57119;52.516;13.508;2024-01-30T05:48:34;0.13;99.99
69823;SHT31;57119;52.516;13.508;2024-01-30T05:51:00;0.00;99.99
69823;SHT31;57119;52.516;13.508;2024-01-30T05:53:26;-0.13;99.99
69823;SHT31;57119;52.516;13.508;2024-01-30T05:55:51;-0.10;99.99
69823;SHT31;57119;52.516;13.508;2024-01-30T05:58:17;-0.25;99.99
69823;SHT31;57119;52.516;13.508;2024-01-30T06:00:42;-0.26;99.99
69823;SHT31;57119;52.516;13.508;2024-01-30T06:03:08;-0.26;99.99
69823;SHT31;57119;52.516;13.508;2024-01-30T06:05:33;-0.34;99.99
69823;SHT31;57119;52.516;13.508;2024-01-30T06:07:58;-0.31;99.99
69823;SHT31;57119;52.516;13.508;2024-01-30T06:10:24;-0.34;99.99
69823;SHT31;57119;52.516;13.508;2024-01-30T06:12:49;-0.38;99.99
69823;SHT31;57119;52.516;13.508;2024-01-30T06:15:14;-0.39;99.99
69823;SHT31;57119;52.516;13.508;2024-01-30T06:17:40;-0.36;99.99
69823;SHT31;57119;52.516;13.508;2024-01-30T06:20:06;-0.43;99.99
69823;SHT31;57119;52.516;13.508;2024-01-30T06:22:31;-0.35;99.99
69823;SHT31;57119;52.516;13.508;2024-01-30T06:24:57;-0.26;99.99
69823;SHT31;57119;52.516;13.508;2024-01-30T06:27:22;-0.18;99.99
69823;SHT31;57119;52.516;13.508;2024-01-30T06:29:48;0.07;99.99
69823;SHT31;57119;52.516;13.508;2024-01-30T06:32:13;0.07;99.99
69823;SHT31;57119;52.516;13.508;2024-01-30T06:34:38;-0.01;99.99
69823;SHT31;57119;52.516;13.508;2024-01-30T06:37:05;-0.05;99.99
69823;SHT31;57119;52.516;13.508;2024-01-30T06:39:30;0.16;99.99
69823;SHT31;57119;52.516;13.508;2024-01-30T06:41:56;0.02;99.99
69823;SHT31;57119;52.516;13.508;2024-01-30T06:44:21;-0.07;99.99
69823;SHT31;57119;52.516;13.508;2024-01-30T06:46:47;-0.15;99.99
69823;SHT31;57119;52.516;13.508;2024-01-30T06:49:12;-0.14;99.99
69823;SHT31;57119;52.516;13.508;2024-01-30T06:51:37;-0.21;99.99
69823;SHT31;57119;52.516;13.508;2024-01-30T06:54:03;-0.17;99.99
69823;SHT31;57119;52.516;13.508;2024-01-30T06:56:29;-0.19;99.99
69823;SHT31;57119;52.516;13.508;2024-01-30T06:58:54;-0.19;99.99
69823;SHT31;57119;52.516;13.508;2024-01-30T07:01:20;-0.21;99.99
69823;SHT31;57119;52.516;13.508;2024-01-30T07:03:46;-0.22;99.99
69823;SHT31;57119;52.516;13.508;2024-01-30T07:06:11;-0.05;99.99
69823;SHT31;57119;52.516;13.508;2024-01-30T07:08:37;0.16;99.99
69823;SHT31;57119;52.516;13.508;2024-01-30T07:11:04;0.05;99.99
69823;SHT31;57119;52.516;13.508;2024-01-30T07:13:30;0.03;99.99
69823;SHT31;57119;52.516;13.508;2024-01-30T07:15:55;0.09;99.99
69823;SHT31;57119;52.516;13.508;2024-01-30T07:18:20;0.26;99.99
69823;SHT31;57119;52.516;13.508;2024-01-30T07:20:46;0.26;99.99
69823;SHT31;57119;52.516;13.508;2024-01-30T07:23:13;0.33;99.99
69823;SHT31;57119;52.516;13.508;2024-01-30T07:25:41;0.44;99.99
69823;SHT31;57119;52.516;13.508;2024-01-30T07:28:07;0.55;99.99
69823;SHT31;57119;52.516;13.508;2024-01-30T07:30:35;0.83;99.99
69823;SHT31;57119;52.516;13.508;2024-01-30T07:33:00;0.86;99.99
69823;SHT31;57119;52.516;13.508;2024-01-30T07:35:25;0.92;99.99
69823;SHT31;57119;52.516;13.508;2024-01-30T07:37:51;0.93;99.99
69823;SHT31;57119;52.516;13.508;2024-01-30T07:40:17;1.02;99.99
69823;SHT31;57119;52.516;13.508;2024-01-30T07:42:42;1.04;99.99
69823;SHT31;57119;52.516;13.508;2024-01-30T07:45:08;1.15;99.99
69823;SHT31;57119;52.516;13.508;2024-01-30T07:47:33;1.19;99.99
69823;SHT31;57119;52.516;13.508;2024-01-30T07:49:59;1.15;99.99
69823;SHT31;57119;52.516;13.508;2024-01-30T07:52:24;1.29;99.99
69823;SHT31;57119;52.516;13.508;2024-01-30T07:54:50;1.61;99.99
69823;SHT31;57119;52.516;13.508;2024-01-30T07:57:16;1.68;99.33
69823;SHT31;57119;52.516;13.508;2024-01-30T07:59:43;1.78;99.11
69823;SHT31;57119;52.516;13.508;2024-01-30T08:02:14;2.06;99.24
69823;SHT31;57119;52.516;13.508;2024-01-30T08:04:40;2.08;98.22
69823;SHT31;57119;52.516;13.508;2024-01-30T08:07:05;2.13;97.94
69823;SHT31;57119;52.516;13.508;2024-01-30T08:09:30;2.10;97.61
69823;SHT31;57119;52.516;13.508;2024-01-30T08:11:56;2.12;97.75
69823;SHT31;57119;52.516;13.508;2024-01-30T08:14:21;2.29;97.16
69823;SHT31;57119;52.516;13.508;2024-01-30T08:16:47;2.33;96.88
69823;SHT31;57119;52.516;13.508;2024-01-30T08:19:14;2.51;96.66
69823;SHT31;57119;52.516;13.508;2024-01-30T08:21:40;2.62;96.38
69823;SHT31;57119;52.516;13.508;2024-01-30T08:24:06;2.83;95.89
69823;SHT31;57119;52.516;13.508;2024-01-30T08:26:32;2.88;95.63
69823;SHT31;57119;52.516;13.508;2024-01-30T08:28:57;2.81;95.41
69823;SHT31;57119;52.516;13.508;2024-01-30T08:31:23;2.92;95.67
69823;SHT31;57119;52.516;13.508;2024-01-30T08:33:48;3.19;95.18
69823;SHT31;57119;52.516;13.508;2024-01-30T08:36:15;3.16;94.37
69823;SHT31;57119;52.516;13.508;2024-01-30T08:38:40;3.20;94.48
69823;SHT31;57119;52.516;13.508;2024-01-30T08:41:07;3.26;94.18
69823;SHT31;57119;52.516;13.508;2024-01-30T08:43:32;3.39;93.94
69823;SHT31;57119;52.516;13.508;2024-01-30T08:46:00;3.54;93.39
69823;SHT31;57119;52.516;13.508;2024-01-30T08:48:26;3.62;93.12
69823;SHT31;57119;52.516;13.508;2024-01-30T08:50:51;3.87;92.67
69823;SHT31;57119;52.516;13.508;2024-01-30T08:53:17;4.18;91.97
69823;SHT31;57119;52.516;13.508;2024-01-30T08:55:42;4.46;90.84
69823;SHT31;57119;52.516;13.508;2024-01-30T08:58:08;5.25;89.18
69823;SHT31;57119;52.516;13.508;2024-01-30T09:00:33;5.97;87.14
69823;SHT31;57119;52.516;13.508;2024-01-30T09:02:58;6.53;85.94
69823;SHT31;57119;52.516;13.508;2024-01-30T09:05:24;6.66;86.08
69823;SHT31;57119;52.516;13.508;2024-01-30T09:07:49;7.73;83.02
69823;SHT31;57119;52.516;13.508;2024-01-30T09:10:15;7.10;82.47
69823;SHT31;57119;52.516;13.508;2024-01-30T09:12:40;7.07;83.12
69823;SHT31;57119;52.516;13.508;2024-01-30T09:15:06;7.14;82.65
69823;SHT31;57119;52.516;13.508;2024-01-30T09:17:32;7.18;82.81
69823;SHT31;57119;52.516;13.508;2024-01-30T09:19:58;7.58;82.33
69823;SHT31;57119;52.516;13.508;2024-01-30T09:22:23;6.97;82.35
69823;SHT31;57119;52.516;13.508;2024-01-30T09:24:49;7.47;81.85
69823;SHT31;57119;52.516;13.508;2024-01-30T09:27:14;7.01;82.08
69823;SHT31;57119;52.516;13.508;2024-01-30T09:29:39;7.18;82.65
69823;SHT31;57119;52.516;13.508;2024-01-30T09:32:05;6.87;82.75
69823;SHT31;57119;52.516;13.508;2024-01-30T09:34:31;6.85;83.58
69823;SHT31;57119;52.516;13.508;2024-01-30T09:36:58;7.43;82.02
69823;SHT31;57119;52.516;13.508;2024-01-30T09:39:23;7.28;82.31
69823;SHT31;57119;52.516;13.508;2024-01-30T09:44:25;7.25;82.48
69823;SHT31;57119;52.516;13.508;2024-01-30T09:46:53;7.27;82.03
69823;SHT31;57119;52.516;13.508;2024-01-30T09:49:20;7.18;82.46
69823;SHT31;57119;52.516;13.508;2024-01-30T09:51:46;7.32;82.02
69823;SHT31;57119;52.516;13.508;2024-01-30T09:54:13;7.27;82.11
69823;SHT31;57119;52.516;13.508;2024-01-30T09:56:39;7.68;81.07
69823;SHT31;57119;52.516;13.508;2024-01-30T09:59:04;8.10;80.83
69823;SHT31;57119;52.516;13.508;2024-01-30T10:01:31;7.81;80.88
69823;SHT31;57119;52.516;13.508;2024-01-30T10:03:56;8.13;79.61
69823;SHT31;57119;52.516;13.508;2024-01-30T10:06:24;8.06;79.75
69823;SHT31;57119;52.516;13.508;2024-01-30T10:08:49;8.40;78.69
69823;SHT31;57119;52.516;13.508;2024-01-30T10:11:15;8.50;79.19
69823;SHT31;57119;52.516;13.508;2024-01-30T10:13:40;8.69;78.27
69823;SHT31;57119;52.516;13.508;2024-01-30T10:16:06;8.42;77.31
69823;SHT31;57119;52.516;13.508;2024-01-30T10:18:35;8.68;77.63
69823;SHT31;57119;52.516;13.508;2024-01-30T10:21:00;8.71;76.91
69823;SHT31;57119;52.516;13.508;2024-01-30T10:23:26;9.23;76.78
69823;SHT31;57119;52.516;13.508;2024-01-30T10:25:51;8.23;78.11
69823;SHT31;57119;52.516;13.508;2024-01-30T10:28:17;8.52;77.99
69823;SHT31;57119;52.516;13.508;2024-01-30T10:30:43;8.82;78.09
69823;SHT31;57119;52.516;13.508;2024-01-30T10:33:08;9.26;76.72
69823;SHT31;57119;52.516;13.508;2024-01-30T10:35:34;9.37;76.80
69823;SHT31;57119;52.516;13.508;2024-01-30T10:38:00;8.79;76.47
69823;SHT31;57119;52.516;13.508;2024-01-30T10:40:29;8.67;77.90
69823;SHT31;57119;52.516;13.508;2024-01-30T10:42:55;8.67;77.42
69823;SHT31;57119;52.516;13.508;2024-01-30T10:45:22;8.76;77.33
69823;SHT31;57119;52.516;13.508;2024-01-30T10:47:53;9.17;76.59
69823;SHT31;57119;52.516;13.508;2024-01-30T10:50:19;9.44;75.86
69823;SHT31;57119;52.516;13.508;2024-01-30T10:52:45;9.40;76.04
69823;SHT31;57119;52.516;13.508;2024-01-30T10:55:12;9.20;76.58
69823;SHT31;57119;52.516;13.508;2024-01-30T10:57:39;9.06;76.79
69823;SHT31;57119;52.516;13.508;2024-01-30T11:00:14;9.23;76.31
69823;SHT31;57119;52.516;13.508;2024-01-30T11:02:45;9.47;76.46
69823;SHT31;57119;52.516;13.508;2024-01-30T11:05:11;9.52;75.78
69823;SHT31;57119;52.516;13.508;2024-01-30T11:07:41;10.10;74.31
69823;SHT31;57119;52.516;13.508;2024-01-30T11:10:07;9.71;75.02
69823;SHT31;57119;52.516;13.508;2024-01-30T11:12:38;10.32;73.18
69823;SHT31;57119;52.516;13.508;2024-01-30T11:15:13;10.36;73.12
69823;SHT31;57119;52.516;13.508;2024-01-30T11:22:49;10.75;71.21
69823;SHT31;57119;52.516;13.508;2024-01-30T11:25:17;9.92;72.09
69823;SHT31;57119;52.516;13.508;2024-01-30T11:27:44;10.26;72.09
69823;SHT31;57119;52.516;13.508;2024-01-30T11:30:10;10.15;72.29
69823;SHT31;57119;52.516;13.508;2024-01-30T11:32:36;9.58;72.64
69823;SHT31;57119;52.516;13.508;2024-01-30T11:35:05;9.64;73.38
69823;SHT31;57119;52.516;13.508;2024-01-30T11:37:37;9.88;72.95
69823;SHT31;57119;52.516;13.508;2024-01-30T11:40:04;9.73;73.12
69823;SHT31;57119;52.516;13.508;2024-01-30T11:42:31;9.57;73.79
69823;SHT31;57119;52.516;13.508;2024-01-30T11:44:59;9.86;73.30
69823;SHT31;57119;52.516;13.508;2024-01-30T11:47:26;9.79;73.60
69823;SHT31;57119;52.516;13.508;2024-01-30T11:49:51;9.64;73.51
69823;SHT31;57119;52.516;13.508;2024-01-30T11:52:17;9.55;73.19
69823;SHT31;57119;52.516;13.508;2024-01-30T11:54:42;9.67;73.79
69823;SHT31;57119;52.516;13.508;2024-01-30T11:57:08;9.54;73.43
69823;SHT31;57119;52.516;13.508;2024-01-30T11:59:34;9.85;73.60
69823;SHT31;57119;52.516;13.508;2024-01-30T12:01:59;9.99;73.51
69823;SHT31;57119;52.516;13.508;2024-01-30T12:04:28;9.89;73.28
69823;SHT31;57119;52.516;13.508;2024-01-30T12:06:54;9.55;73.92
69823;SHT31;57119;52.516;13.508;2024-01-30T12:09:19;9.71;73.81
69823;SHT31;57119;52.516;13.508;2024-01-30T12:11:48;9.82;73.57
69823;SHT31;57119;52.516;13.508;2024-01-30T12:14:14;10.09;72.99
69823;SHT31;57119;52.516;13.508;2024-01-30T12:16:40;10.57;72.30
69823;SHT31;57119;52.516;13.508;2024-01-30T12:19:09;10.75;72.73
69823;SHT31;57119;52.516;13.508;2024-01-30T12:21:34;10.26;72.67
69823;SHT31;57119;52.516;13.508;2024-01-30T12:24:00;10.47;72.47
69823;SHT31;57119;52.516;13.508;2024-01-30T12:26:26;11.07;71.62
69823;SHT31;57119;52.516;13.508;2024-01-30T12:28:55;11.11;70.93
69823;SHT31;57119;52.516;13.508;2024-01-30T12:31:27;10.81;72.42
69823;SHT31;57119;52.516;13.508;2024-01-30T12:33:53;10.33;72.97
69823;SHT31;57119;52.516;13.508;2024-01-30T12:36:21;10.95;72.43
69823;SHT31;57119;52.516;13.508;2024-01-30T12:38:46;10.71;72.59
69823;SHT31;57119;52.516;13.508;2024-01-30T12:41:12;10.61;73.31
69823;SHT31;57119;52.516;13.508;2024-01-30T12:43:38;10.75;72.18
69823;SHT31;57119;52.516;13.508;2024-01-30T12:46:07;10.08;73.67
69823;SHT31;57119;52.516;13.508;2024-01-30T12:48:35;10.35;74.02
69823;SHT31;57119;52.516;13.508;2024-01-30T12:51:04;10.35;74.00
69823;SHT31;57119;52.516;13.508;2024-01-30T12:53:29;10.29;74.61
69823;SHT31;57119;52.516;13.508;2024-01-30T12:55:55;9.88;74.68
69823;SHT31;57119;52.516;13.508;2024-01-30T12:58:21;9.91;74.63
69823;SHT31;57119;52.516;13.508;2024-01-30T13:00:46;10.42;74.39
69823;SHT31;57119;52.516;13.508;2024-01-30T13:03:12;10.95;73.63
69823;SHT31;57119;52.516;13.508;2024-01-30T13:05:38;10.46;74.07
69823;SHT31;57119;52.516;13.508;2024-01-30T13:08:04;11.07;73.41
69823;SHT31;57119;52.516;13.508;2024-01-30T13:10:29;10.74;73.67
69823;SHT31;57119;52.516;13.508;2024-01-30T13:12:54;10.73;73.70
69823;SHT31;57119;52.516;13.508;2024-01-30T13:15:20;10.88;74.08
69823;SHT31;57119;52.516;13.508;2024-01-30T13:17:45;10.95;73.92
69823;SHT31;57119;52.516;13.508;2024-01-30T13:20:13;10.77;74.98
69823;SHT31;57119;52.516;13.508;2024-01-30T13:22:44;10.84;74.22
69823;SHT31;57119;52.516;13.508;2024-01-30T13:25:10;11.14;73.99
69823;SHT31;57119;52.516;13.508;2024-01-30T13:27:36;10.61;74.46
69823;SHT31;57119;52.516;13.508;2024-01-30T13:30:02;10.73;75.00
69823;SHT31;57119;52.516;13.508;2024-01-30T13:32:29;10.90;74.75
69823;SHT31;57119;52.516;13.508;2024-01-30T13:34:54;10.65;74.87
69823;SHT31;57119;52.516;13.508;2024-01-30T13:37:20;10.49;75.32
69823;SHT31;57119;52.516;13.508;2024-01-30T13:39:45;9.92;76.44
69823;SHT31;57119;52.516;13.508;2024-01-30T13:42:11;9.94;76.89
69823;SHT31;57119;52.516;13.508;2024-01-30T13:44:36;9.89;77.12
69823;SHT31;57119;52.516;13.508;2024-01-30T13:47:02;9.86;77.68
69823;SHT31;57119;52.516;13.508;2024-01-30T13:49:27;9.81;77.70
69823;SHT31;57119;52.516;13.508;2024-01-30T13:51:53;9.88;77.75
69823;SHT31;57119;52.516;13.508;2024-01-30T13:54:18;9.65;78.08
69823;SHT31;57119;52.516;13.508;2024-01-30T13:56:44;9.81;78.22
69823;SHT31;57119;52.516;13.508;2024-01-30T13:59:09;9.61;78.25
69823;SHT31;57119;52.516;13.508;2024-01-30T14:01:35;9.68;78.52
69823;SHT31;57119;52.516;13.508;2024-01-30T14:04:00;9.50;78.85
69823;SHT31;57119;52.516;13.508;2024-01-30T14:06:25;9.50;79.14
69823;SHT31;57119;52.516;13.508;2024-01-30T14:08:51;9.41;79.52
69823;SHT31;57119;52.516;13.508;2024-01-30T14:11:16;9.54;79.31
69823;SHT31;57119;52.516;13.508;2024-01-30T14:13:42;9.43;79.56
69823;SHT31;57119;52.516;13.508;2024-01-30T14:16:07;9.44;79.68
69823;SHT31;57119;52.516;13.508;2024-01-30T14:18:32;9.24;79.87
69823;SHT31;57119;52.516;13.508;2024-01-30T14:20:58;9.31;80.18
69823;SHT31;57119;52.516;13.508;2024-01-30T14:23:23;9.34;79.96
69823;SHT31;57119;52.516;13.508;2024-01-30T14:25:49;9.38;80.11
69823;SHT31;57119;52.516;13.508;2024-01-30T14:28:16;9.37;80.06
69823;SHT31;57119;52.516;13.508;2024-01-30T14:30:42;9.20;80.60
69823;SHT31;57119;52.516;13.508;2024-01-30T14:33:07;9.29;80.51
69823;SHT31;57119;52.516;13.508;2024-01-30T14:35:33;9.26;80.61
69823;SHT31;57119;52.516;13.508;2024-01-30T14:37:59;9.26;80.57
69823;SHT31;57119;52.516;13.508;2024-01-30T14:40:24;9.10;80.81
69823;SHT31;57119;52.516;13.508;2024-01-30T14:42:50;8.99;81.21
69823;SHT31;57119;52.516;13.508;2024-01-30T14:45:15;9.12;81.21
69823;SHT31;57119;52.516;13.508;2024-01-30T14:47:41;8.93;81.50
69823;SHT31;57119;52.516;13.508;2024-01-30T14:50:07;8.86;81.81
69823;SHT31;57119;52.516;13.508;2024-01-30T14:52:33;8.93;81.97
69823;SHT31;57119;52.516;13.508;2024-01-30T14:54:58;8.82;82.27
69823;SHT31;57119;52.516;13.508;2024-01-30T14:57:24;8.82;82.19
69823;SHT31;57119;52.516;13.508;2024-01-30T14:59:50;8.62;82.63
69823;SHT31;57119;52.516;13.508;2024-01-30T15:02:15;8.60;82.92
69823;SHT31;57119;52.516;13.508;2024-01-30T15:04:41;8.57;83.12
69823;SHT31;57119;52.516;13.508;2024-01-30T15:07:06;8.47;83.35
69823;SHT31;57119;52.516;13.508;2024-01-30T15:09:32;8.36;83.64
69823;SHT31;57119;52.516;13.508;2024-01-30T15:11:57;8.38;83.81
69823;SHT31;57119;52.516;13.508;2024-01-30T15:14:23;8.31;83.95
69823;SHT31;57119;52.516;13.508;2024-01-30T15:16:49;8.27;84.03
69823;SHT31;57119;52.516;13.508;2024-01-30T15:19:15;8.17;84.37
69823;SHT31;57119;52.516;13.508;2024-01-30T15:21:40;8.16;84.37